sensor_id;sensor_type;location;lat;lon;timestamp;P1;durP1;ratioP1;P2;durP2;ratioP2
13487;SDS011;6816;48.506;9.050;2023-08-31T00:00:41;2.13;;;1.50;;
13487;SDS011;6816;48.506;9.050;2023-08-31T00:03:43;1.63;;;1.30;;
13487;SDS011;6816;48.506;9.050;2023-08-31T00:06:44;1.40;;;1.30;;
13487;SDS011;6816;48.506;9.050;2023-08-31T00:09:46;1.93;;;1.40;;
13487;SDS011;6816;48.506;9.050;2023-08-31T00:12:47;1.70;;;1.60;;
13487;SDS011;6816;48.506;9.050;2023-08-31T00:15:49;2.63;;;1.40;;
13487;SDS011;6816;48.506;9.050;2023-08-31T00:18:49;2.13;;;1.50;;
13487;SDS011;6816;48.506;9.050;2023-08-31T00:21:50;1.60;;;1.50;;
13487;SDS011;6816;48.506;9.050;2023-08-31T00:24:51;1.80;;;1.53;;
13487;SDS011;6816;48.506;9.050;2023-08-31T00:27:52;2.33;;;1.43;;
13487;SDS011;6816;48.506;9.050;2023-08-31T00:30:54;2.03;;;1.83;;
13487;SDS011;6816;48.506;9.050;2023-08-31T00:33:54;1.60;;;1.50;;
13487;SDS011;6816;48.506;9.050;2023-08-31T00:36:55;4.37;;;1.73;;
13487;SDS011;6816;48.506;9.050;2023-08-31T00:39:55;2.13;;;1.63;;
13487;SDS011;6816;48.506;9.050;2023-08-31T00:42:56;1.63;;;1.53;;
13487;SDS011;6816;48.506;9.050;2023-08-31T00:45:57;1.47;;;1.37;;
13487;SDS011;6816;48.506;9.050;2023-08-31T00:48:58;1.70;;;1.60;;
13487;SDS011;6816;48.506;9.050;2023-08-31T00:51:59;2.10;;;1.40;;
13487;SDS011;6816;48.506;9.050;2023-08-31T00:54:59;1.57;;;1.47;;
13487;SDS011;6816;48.506;9.050;2023-08-31T00:58:05;1.73;;;1.40;;
13487;SDS011;6816;48.506;9.050;2023-08-31T01:01:09;1.73;;;1.40;;
13487;SDS011;6816;48.506;9.050;2023-08-31T01:14:09;1.70;;;1.60;;
13487;SDS011;6816;48.506;9.050;2023-08-31T01:17:14;1.40;;;1.30;;
13487;SDS011;6816;48.506;9.050;2023-08-31T01:20:17;1.90;;;1.60;;
13487;SDS011;6816;48.506;9.050;2023-08-31T01:23:46;2.27;;;1.57;;
13487;SDS011;6816;48.506;9.050;2023-08-31T01:26:47;2.83;;;1.80;;
13487;SDS011;6816;48.506;9.050;2023-08-31T01:29:48;2.90;;;1.50;;
13487;SDS011;6816;48.506;9.050;2023-08-31T01:32:49;1.63;;;1.50;;
13487;SDS011;6816;48.506;9.050;2023-08-31T01:35:50;1.73;;;1.63;;
13487;SDS011;6816;48.506;9.050;2023-08-31T01:39:15;2.23;;;1.57;;
13487;SDS011;6816;48.506;9.050;2023-08-31T01:42:35;1.93;;;1.40;;
13487;SDS011;6816;48.506;9.050;2023-08-31T01:45:36;3.40;;;2.00;;
13487;SDS011;6816;48.506;9.050;2023-08-31T01:48:38;1.60;;;1.50;;
13487;SDS011;6816;48.506;9.050;2023-08-31T01:51:40;1.90;;;1.20;;
13487;SDS011;6816;48.506;9.050;2023-08-31T01:54:40;1.90;;;1.50;;
13487;SDS011;6816;48.506;9.050;2023-08-31T01:57:41;2.53;;;1.27;;
13487;SDS011;6816;48.506;9.050;2023-08-31T02:00:42;1.73;;;1.60;;
13487;SDS011;6816;48.506;9.050;2023-08-31T02:03:44;1.40;;;1.30;;
13487;SDS011;6816;48.506;9.050;2023-08-31T02:06:45;1.60;;;1.30;;
13487;SDS011;6816;48.506;9.050;2023-08-31T02:09:45;1.43;;;1.33;;
13487;SDS011;6816;48.506;9.050;2023-08-31T02:12:46;2.07;;;1.40;;
13487;SDS011;6816;48.506;9.050;2023-08-31T02:15:47;1.93;;;1.30;;
13487;SDS011;6816;48.506;9.050;2023-08-31T02:18:52;2.93;;;1.40;;
13487;SDS011;6816;48.506;9.050;2023-08-31T02:21:52;2.33;;;1.57;;
13487;SDS011;6816;48.506;9.050;2023-08-31T02:24:53;1.80;;;1.40;;
13487;SDS011;6816;48.506;9.050;2023-08-31T02:27:54;2.40;;;1.47;;
13487;SDS011;6816;48.506;9.050;2023-08-31T02:30:58;1.27;;;1.13;;
13487;SDS011;6816;48.506;9.050;2023-08-31T02:33:59;1.40;;;1.20;;
13487;SDS011;6816;48.506;9.050;2023-08-31T02:37:00;1.60;;;1.30;;
13487;SDS011;6816;48.506;9.050;2023-08-31T02:40:00;1.53;;;1.40;;
13487;SDS011;6816;48.506;9.050;2023-08-31T02:43:01;2.43;;;1.40;;
13487;SDS011;6816;48.506;9.050;2023-08-31T02:46:03;1.40;;;1.30;;
13487;SDS011;6816;48.506;9.050;2023-08-31T02:49:04;1.43;;;1.33;;
13487;SDS011;6816;48.506;9.050;2023-08-31T02:52:05;1.40;;;1.27;;
13487;SDS011;6816;48.506;9.050;2023-08-31T02:55:05;2.90;;;1.30;;
13487;SDS011;6816;48.506;9.050;2023-08-31T02:58:06;1.40;;;1.30;;
13487;SDS011;6816;48.506;9.050;2023-08-31T03:01:11;1.20;;;1.10;;
13487;SDS011;6816;48.506;9.050;2023-08-31T03:04:12;3.10;;;1.47;;
13487;SDS011;6816;48.506;9.050;2023-08-31T03:07:12;4.03;;;1.60;;
13487;SDS011;6816;48.506;9.050;2023-08-31T03:10:13;1.30;;;1.20;;
13487;SDS011;6816;48.506;9.050;2023-08-31T03:13:14;2.33;;;1.20;;
13487;SDS011;6816;48.506;9.050;2023-08-31T03:16:14;1.70;;;1.40;;
13487;SDS011;6816;48.506;9.050;2023-08-31T03:19:15;3.67;;;1.57;;
13487;SDS011;6816;48.506;9.050;2023-08-31T03:22:15;1.80;;;1.70;;
13487;SDS011;6816;48.506;9.050;2023-08-31T03:25:16;1.53;;;1.43;;
13487;SDS011;6816;48.506;9.050;2023-08-31T03:28:17;1.50;;;1.40;;
13487;SDS011;6816;48.506;9.050;2023-08-31T03:31:17;1.90;;;1.37;;
13487;SDS011;6816;48.506;9.050;2023-08-31T03:34:18;2.17;;;1.50;;
13487;SDS011;6816;48.506;9.050;2023-08-31T03:37:18;2.20;;;1.37;;
13487;SDS011;6816;48.506;9.050;2023-08-31T03:40:20;1.40;;;1.30;;
13487;SDS011;6816;48.506;9.050;2023-08-31T03:43:21;2.57;;;1.60;;
13487;SDS011;6816;48.506;9.050;2023-08-31T03:46:21;4.10;;;1.60;;
13487;SDS011;6816;48.506;9.050;2023-08-31T03:49:22;1.83;;;1.60;;
13487;SDS011;6816;48.506;9.050;2023-08-31T03:52:23;2.30;;;1.43;;
13487;SDS011;6816;48.506;9.050;2023-08-31T03:55:24;2.00;;;1.70;;
13487;SDS011;6816;48.506;9.050;2023-08-31T03:58:24;1.90;;;1.70;;
13487;SDS011;6816;48.506;9.050;2023-08-31T04:01:25;1.83;;;1.50;;
13487;SDS011;6816;48.506;9.050;2023-08-31T04:04:25;1.60;;;1.50;;
13487;SDS011;6816;48.506;9.050;2023-08-31T04:07:26;2.20;;;1.50;;
13487;SDS011;6816;48.506;9.050;2023-08-31T04:10:26;2.03;;;1.70;;
13487;SDS011;6816;48.506;9.050;2023-08-31T04:13:29;1.47;;;1.37;;
13487;SDS011;6816;48.506;9.050;2023-08-31T04:16:30;2.47;;;1.50;;
13487;SDS011;6816;48.506;9.050;2023-08-31T04:19:31;3.53;;;1.80;;
13487;SDS011;6816;48.506;9.050;2023-08-31T04:22:32;1.60;;;1.50;;
13487;SDS011;6816;48.506;9.050;2023-08-31T04:25:32;2.10;;;1.90;;
13487;SDS011;6816;48.506;9.050;2023-08-31T04:28:33;1.73;;;1.63;;
13487;SDS011;6816;48.506;9.050;2023-08-31T04:31:34;1.73;;;1.63;;
13487;SDS011;6816;48.506;9.050;2023-08-31T04:34:34;2.07;;;1.90;;
13487;SDS011;6816;48.506;9.050;2023-08-31T04:37:35;2.00;;;1.80;;
13487;SDS011;6816;48.506;9.050;2023-08-31T04:40:36;2.43;;;1.73;;
13487;SDS011;6816;48.506;9.050;2023-08-31T04:43:37;2.23;;;1.83;;
13487;SDS011;6816;48.506;9.050;2023-08-31T04:46:38;3.53;;;1.70;;
13487;SDS011;6816;48.506;9.050;2023-08-31T04:49:38;1.97;;;1.77;;
13487;SDS011;6816;48.506;9.050;2023-08-31T04:52:39;1.80;;;1.70;;
13487;SDS011;6816;48.506;9.050;2023-08-31T04:55:39;4.50;;;1.80;;
13487;SDS011;6816;48.506;9.050;2023-08-31T04:58:40;1.73;;;1.63;;
13487;SDS011;6816;48.506;9.050;2023-08-31T05:01:40;3.83;;;1.93;;
13487;SDS011;6816;48.506;9.050;2023-08-31T05:04:41;2.90;;;1.87;;
13487;SDS011;6816;48.506;9.050;2023-08-31T05:07:42;2.80;;;1.57;;
13487;SDS011;6816;48.506;9.050;2023-08-31T05:10:44;2.20;;;2.00;;
13487;SDS011;6816;48.506;9.050;2023-08-31T05:13:45;1.77;;;1.67;;
13487;SDS011;6816;48.506;9.050;2023-08-31T05:16:47;3.00;;;1.93;;
13487;SDS011;6816;48.506;9.050;2023-08-31T05:19:47;1.67;;;1.57;;
13487;SDS011;6816;48.506;9.050;2023-08-31T05:22:48;1.80;;;1.70;;
13487;SDS011;6816;48.506;9.050;2023-08-31T05:25:48;2.57;;;1.80;;
13487;SDS011;6816;48.506;9.050;2023-08-31T05:28:49;3.50;;;1.73;;
13487;SDS011;6816;48.506;9.050;2023-08-31T05:31:51;1.73;;;1.63;;
13487;SDS011;6816;48.506;9.050;2023-08-31T05:34:52;2.63;;;2.00;;
13487;SDS011;6816;48.506;9.050;2023-08-31T05:37:53;2.97;;;1.90;;
13487;SDS011;6816;48.506;9.050;2023-08-31T05:40:54;3.40;;;2.40;;
13487;SDS011;6816;48.506;9.050;2023-08-31T05:43:54;2.73;;;2.30;;
13487;SDS011;6816;48.506;9.050;2023-08-31T05:46:55;2.43;;;2.23;;
13487;SDS011;6816;48.506;9.050;2023-08-31T05:49:55;2.47;;;2.27;;
13487;SDS011;6816;48.506;9.050;2023-08-31T05:52:56;2.50;;;2.27;;
13487;SDS011;6816;48.506;9.050;2023-08-31T05:55:57;2.27;;;2.07;;
13487;SDS011;6816;48.506;9.050;2023-08-31T05:59:03;5.57;;;2.10;;
13487;SDS011;6816;48.506;9.050;2023-08-31T06:02:04;2.47;;;2.10;;
13487;SDS011;6816;48.506;9.050;2023-08-31T06:05:05;3.03;;;2.17;;
13487;SDS011;6816;48.506;9.050;2023-08-31T06:08:06;3.80;;;2.23;;
13487;SDS011;6816;48.506;9.050;2023-08-31T06:11:07;3.33;;;2.40;;
13487;SDS011;6816;48.506;9.050;2023-08-31T06:14:07;3.57;;;2.10;;
13487;SDS011;6816;48.506;9.050;2023-08-31T06:17:08;3.50;;;2.37;;
13487;SDS011;6816;48.506;9.050;2023-08-31T06:20:11;2.73;;;2.30;;
13487;SDS011;6816;48.506;9.050;2023-08-31T06:23:12;2.57;;;2.37;;
13487;SDS011;6816;48.506;9.050;2023-08-31T06:26:12;2.77;;;2.47;;
13487;SDS011;6816;48.506;9.050;2023-08-31T06:29:13;2.73;;;2.17;;
13487;SDS011;6816;48.506;9.050;2023-08-31T06:32:14;2.50;;;2.30;;
13487;SDS011;6816;48.506;9.050;2023-08-31T06:35:16;2.57;;;2.20;;
13487;SDS011;6816;48.506;9.050;2023-08-31T06:38:17;4.03;;;2.30;;
13487;SDS011;6816;48.506;9.050;2023-08-31T06:41:18;4.00;;;2.00;;
13487;SDS011;6816;48.506;9.050;2023-08-31T06:44:19;2.67;;;2.33;;
13487;SDS011;6816;48.506;9.050;2023-08-31T06:47:19;3.47;;;2.37;;
13487;SDS011;6816;48.506;9.050;2023-08-31T06:50:20;2.97;;;2.47;;
13487;SDS011;6816;48.506;9.050;2023-08-31T06:53:21;3.10;;;2.37;;
13487;SDS011;6816;48.506;9.050;2023-08-31T06:56:21;2.30;;;2.10;;
13487;SDS011;6816;48.506;9.050;2023-08-31T06:59:22;2.80;;;2.60;;
13487;SDS011;6816;48.506;9.050;2023-08-31T07:02:25;2.57;;;2.37;;
13487;SDS011;6816;48.506;9.050;2023-08-31T07:05:26;2.60;;;2.40;;
13487;SDS011;6816;48.506;9.050;2023-08-31T07:08:29;3.07;;;2.60;;
13487;SDS011;6816;48.506;9.050;2023-08-31T07:11:30;2.90;;;2.53;;
13487;SDS011;6816;48.506;9.050;2023-08-31T07:14:31;3.20;;;2.60;;
13487;SDS011;6816;48.506;9.050;2023-08-31T07:17:31;3.67;;;2.47;;
13487;SDS011;6816;48.506;9.050;2023-08-31T07:20:32;2.70;;;2.23;;
13487;SDS011;6816;48.506;9.050;2023-08-31T07:23:33;2.70;;;2.37;;
13487;SDS011;6816;48.506;9.050;2023-08-31T07:26:34;2.83;;;2.20;;
13487;SDS011;6816;48.506;9.050;2023-08-31T07:29:34;4.57;;;2.17;;
13487;SDS011;6816;48.506;9.050;2023-08-31T07:32:35;3.77;;;2.43;;
13487;SDS011;6816;48.506;9.050;2023-08-31T07:35:35;2.70;;;2.17;;
13487;SDS011;6816;48.506;9.050;2023-08-31T07:38:36;2.87;;;2.17;;
13487;SDS011;6816;48.506;9.050;2023-08-31T07:41:37;2.40;;;2.10;;
13487;SDS011;6816;48.506;9.050;2023-08-31T07:44:37;3.37;;;2.10;;
13487;SDS011;6816;48.506;9.050;2023-08-31T07:47:38;3.77;;;2.10;;
13487;SDS011;6816;48.506;9.050;2023-08-31T07:50:41;3.13;;;2.10;;
13487;SDS011;6816;48.506;9.050;2023-08-31T07:53:43;2.73;;;2.17;;
13487;SDS011;6816;48.506;9.050;2023-08-31T07:56:43;1.90;;;1.80;;
13487;SDS011;6816;48.506;9.050;2023-08-31T07:59:45;3.80;;;2.10;;
13487;SDS011;6816;48.506;9.050;2023-08-31T08:02:46;3.50;;;1.90;;
13487;SDS011;6816;48.506;9.050;2023-08-31T08:05:46;2.70;;;1.90;;
13487;SDS011;6816;48.506;9.050;2023-08-31T08:08:47;1.93;;;1.73;;
13487;SDS011;6816;48.506;9.050;2023-08-31T08:11:47;3.73;;;1.90;;
13487;SDS011;6816;48.506;9.050;2023-08-31T08:14:48;3.07;;;1.80;;
13487;SDS011;6816;48.506;9.050;2023-08-31T08:17:49;2.17;;;1.97;;
13487;SDS011;6816;48.506;9.050;2023-08-31T08:20:50;3.00;;;2.07;;
13487;SDS011;6816;48.506;9.050;2023-08-31T08:23:51;3.97;;;2.10;;
13487;SDS011;6816;48.506;9.050;2023-08-31T08:26:52;2.30;;;1.77;;
13487;SDS011;6816;48.506;9.050;2023-08-31T08:29:52;3.47;;;1.90;;
13487;SDS011;6816;48.506;9.050;2023-08-31T08:32:53;4.07;;;1.93;;
13487;SDS011;6816;48.506;9.050;2023-08-31T08:35:55;2.90;;;1.80;;
13487;SDS011;6816;48.506;9.050;2023-08-31T08:38:56;3.20;;;1.77;;
13487;SDS011;6816;48.506;9.050;2023-08-31T08:41:58;3.97;;;1.90;;
13487;SDS011;6816;48.506;9.050;2023-08-31T08:44:59;2.83;;;1.80;;
13487;SDS011;6816;48.506;9.050;2023-08-31T08:48:04;3.40;;;1.70;;
13487;SDS011;6816;48.506;9.050;2023-08-31T08:51:05;3.17;;;1.90;;
13487;SDS011;6816;48.506;9.050;2023-08-31T08:54:07;3.90;;;2.10;;
13487;SDS011;6816;48.506;9.050;2023-08-31T08:57:08;4.20;;;2.20;;
13487;SDS011;6816;48.506;9.050;2023-08-31T09:00:09;3.90;;;1.53;;
13487;SDS011;6816;48.506;9.050;2023-08-31T09:03:10;2.33;;;1.90;;
13487;SDS011;6816;48.506;9.050;2023-08-31T09:06:11;4.57;;;2.00;;
13487;SDS011;6816;48.506;9.050;2023-08-31T09:09:12;2.80;;;2.00;;
13487;SDS011;6816;48.506;9.050;2023-08-31T09:12:12;2.93;;;1.70;;
13487;SDS011;6816;48.506;9.050;2023-08-31T09:15:13;3.40;;;1.70;;
13487;SDS011;6816;48.506;9.050;2023-08-31T09:18:15;3.80;;;1.83;;
13487;SDS011;6816;48.506;9.050;2023-08-31T09:21:34;3.13;;;1.70;;
13487;SDS011;6816;48.506;9.050;2023-08-31T09:24:39;3.77;;;1.57;;
13487;SDS011;6816;48.506;9.050;2023-08-31T09:27:41;2.43;;;1.80;;
13487;SDS011;6816;48.506;9.050;2023-08-31T09:30:47;2.40;;;1.70;;
13487;SDS011;6816;48.506;9.050;2023-08-31T09:33:53;3.20;;;1.80;;
13487;SDS011;6816;48.506;9.050;2023-08-31T09:36:53;4.73;;;1.90;;
13487;SDS011;6816;48.506;9.050;2023-08-31T09:39:54;3.23;;;1.93;;
13487;SDS011;6816;48.506;9.050;2023-08-31T09:42:54;2.80;;;1.90;;
13487;SDS011;6816;48.506;9.050;2023-08-31T09:45:55;3.03;;;1.80;;
13487;SDS011;6816;48.506;9.050;2023-08-31T09:48:56;4.00;;;1.80;;
13487;SDS011;6816;48.506;9.050;2023-08-31T09:51:57;2.80;;;1.70;;
13487;SDS011;6816;48.506;9.050;2023-08-31T09:55:03;3.53;;;1.73;;
13487;SDS011;6816;48.506;9.050;2023-08-31T09:58:05;2.93;;;2.00;;
13487;SDS011;6816;48.506;9.050;2023-08-31T10:01:07;2.87;;;1.80;;
13487;SDS011;6816;48.506;9.050;2023-08-31T10:04:08;2.23;;;1.83;;
13487;SDS011;6816;48.506;9.050;2023-08-31T10:07:09;1.73;;;1.50;;
13487;SDS011;6816;48.506;9.050;2023-08-31T10:10:11;1.80;;;1.50;;
13487;SDS011;6816;48.506;9.050;2023-08-31T10:13:14;2.35;;;1.70;;
13487;SDS011;6816;48.506;9.050;2023-08-31T10:16:15;2.50;;;1.80;;
13487;SDS011;6816;48.506;9.050;2023-08-31T10:19:18;3.13;;;1.57;;
13487;SDS011;6816;48.506;9.050;2023-08-31T10:22:19;2.83;;;1.85;;
13487;SDS011;6816;48.506;9.050;2023-08-31T10:25:20;3.65;;;2.17;;
13487;SDS011;6816;48.506;9.050;2023-08-31T10:28:21;3.37;;;1.90;;
13487;SDS011;6816;48.506;9.050;2023-08-31T10:31:29;2.65;;;1.80;;
13487;SDS011;6816;48.506;9.050;2023-08-31T10:34:35;2.75;;;1.60;;
13487;SDS011;6816;48.506;9.050;2023-08-31T10:37:39;2.03;;;1.50;;
13487;SDS011;6816;48.506;9.050;2023-08-31T10:40:40;3.00;;;1.90;;
13487;SDS011;6816;48.506;9.050;2023-08-31T10:43:48;3.78;;;1.80;;
13487;SDS011;6816;48.506;9.050;2023-08-31T10:46:50;2.90;;;2.00;;
13487;SDS011;6816;48.506;9.050;2023-08-31T10:49:51;2.28;;;1.42;;
13487;SDS011;6816;48.506;9.050;2023-08-31T10:52:53;3.42;;;1.80;;
13487;SDS011;6816;48.506;9.050;2023-08-31T10:55:54;2.28;;;1.60;;
13487;SDS011;6816;48.506;9.050;2023-08-31T10:58:58;3.58;;;2.00;;
13487;SDS011;6816;48.506;9.050;2023-08-31T11:02:00;4.70;;;1.90;;
13487;SDS011;6816;48.506;9.050;2023-08-31T11:08:09;3.00;;;1.80;;
13487;SDS011;6816;48.506;9.050;2023-08-31T11:11:10;5.00;;;1.90;;
13487;SDS011;6816;48.506;9.050;2023-08-31T11:14:10;2.28;;;1.73;;
13487;SDS011;6816;48.506;9.050;2023-08-31T11:17:11;2.95;;;1.70;;
13487;SDS011;6816;48.506;9.050;2023-08-31T11:20:15;2.28;;;1.67;;
13487;SDS011;6816;48.506;9.050;2023-08-31T11:23:17;2.55;;;1.55;;
13487;SDS011;6816;48.506;9.050;2023-08-31T11:26:18;2.08;;;1.63;;
13487;SDS011;6816;48.506;9.050;2023-08-31T11:29:19;1.55;;;1.45;;
13487;SDS011;6816;48.506;9.050;2023-08-31T11:32:22;2.33;;;1.73;;
13487;SDS011;6816;48.506;9.050;2023-08-31T11:35:24;3.22;;;1.60;;
13487;SDS011;6816;48.506;9.050;2023-08-31T11:38:40;2.22;;;1.60;;
13487;SDS011;6816;48.506;9.050;2023-08-31T11:41:41;4.00;;;1.85;;
13487;SDS011;6816;48.506;9.050;2023-08-31T11:44:42;3.17;;;1.77;;
13487;SDS011;6816;48.506;9.050;2023-08-31T11:47:43;3.45;;;1.60;;
13487;SDS011;6816;48.506;9.050;2023-08-31T11:50:44;2.70;;;1.70;;
13487;SDS011;6816;48.506;9.050;2023-08-31T11:53:45;2.35;;;1.70;;
13487;SDS011;6816;48.506;9.050;2023-08-31T11:56:47;2.80;;;1.67;;
13487;SDS011;6816;48.506;9.050;2023-08-31T11:59:48;2.85;;;1.70;;
13487;SDS011;6816;48.506;9.050;2023-08-31T12:02:56;4.03;;;2.00;;
13487;SDS011;6816;48.506;9.050;2023-08-31T12:05:57;3.08;;;1.58;;
13487;SDS011;6816;48.506;9.050;2023-08-31T12:08:58;3.78;;;1.92;;
13487;SDS011;6816;48.506;9.050;2023-08-31T12:11:59;2.35;;;1.55;;
13487;SDS011;6816;48.506;9.050;2023-08-31T12:15:05;2.00;;;1.70;;
13487;SDS011;6816;48.506;9.050;2023-08-31T12:18:07;3.17;;;1.60;;
13487;SDS011;6816;48.506;9.050;2023-08-31T12:21:11;2.05;;;1.58;;
13487;SDS011;6816;48.506;9.050;2023-08-31T12:24:12;1.73;;;1.45;;
13487;SDS011;6816;48.506;9.050;2023-08-31T12:27:13;2.45;;;1.55;;
13487;SDS011;6816;48.506;9.050;2023-08-31T12:30:13;3.05;;;1.75;;
13487;SDS011;6816;48.506;9.050;2023-08-31T12:33:14;2.47;;;1.95;;
13487;SDS011;6816;48.506;9.050;2023-08-31T12:36:14;4.25;;;1.73;;
13487;SDS011;6816;48.506;9.050;2023-08-31T12:39:15;2.72;;;1.55;;
13487;SDS011;6816;48.506;9.050;2023-08-31T12:42:16;3.08;;;1.90;;
13487;SDS011;6816;48.506;9.050;2023-08-31T12:45:17;2.67;;;1.23;;
13487;SDS011;6816;48.506;9.050;2023-08-31T12:48:17;4.03;;;1.88;;
13487;SDS011;6816;48.506;9.050;2023-08-31T12:51:18;3.60;;;1.50;;
13487;SDS011;6816;48.506;9.050;2023-08-31T12:54:19;2.40;;;1.67;;
13487;SDS011;6816;48.506;9.050;2023-08-31T12:57:19;2.28;;;1.70;;
13487;SDS011;6816;48.506;9.050;2023-08-31T13:00:20;3.35;;;1.92;;
13487;SDS011;6816;48.506;9.050;2023-08-31T13:03:21;2.28;;;1.80;;
13487;SDS011;6816;48.506;9.050;2023-08-31T13:06:21;1.67;;;1.58;;
13487;SDS011;6816;48.506;9.050;2023-08-31T13:09:24;2.45;;;1.50;;
13487;SDS011;6816;48.506;9.050;2023-08-31T13:12:24;2.75;;;1.70;;
13487;SDS011;6816;48.506;9.050;2023-08-31T13:15:25;2.38;;;1.58;;
13487;SDS011;6816;48.506;9.050;2023-08-31T13:18:26;1.90;;;1.70;;
13487;SDS011;6816;48.506;9.050;2023-08-31T13:21:26;2.85;;;1.88;;
13487;SDS011;6816;48.506;9.050;2023-08-31T13:24:27;2.45;;;1.60;;
13487;SDS011;6816;48.506;9.050;2023-08-31T13:27:28;2.92;;;1.77;;
13487;SDS011;6816;48.506;9.050;2023-08-31T13:30:29;4.90;;;1.85;;
13487;SDS011;6816;48.506;9.050;2023-08-31T13:33:30;3.03;;;2.17;;
13487;SDS011;6816;48.506;9.050;2023-08-31T13:36:31;3.40;;;1.75;;
13487;SDS011;6816;48.506;9.050;2023-08-31T13:39:33;3.50;;;2.00;;
13487;SDS011;6816;48.506;9.050;2023-08-31T13:42:35;3.05;;;1.83;;
13487;SDS011;6816;48.506;9.050;2023-08-31T13:45:38;3.30;;;1.63;;
13487;SDS011;6816;48.506;9.050;2023-08-31T13:48:41;3.80;;;1.95;;
13487;SDS011;6816;48.506;9.050;2023-08-31T13:51:42;2.30;;;1.98;;
13487;SDS011;6816;48.506;9.050;2023-08-31T13:54:42;2.38;;;1.73;;
13487;SDS011;6816;48.506;9.050;2023-08-31T13:57:43;3.67;;;1.80;;
13487;SDS011;6816;48.506;9.050;2023-08-31T14:00:44;2.60;;;1.73;;
13487;SDS011;6816;48.506;9.050;2023-08-31T14:03:45;3.38;;;1.95;;
13487;SDS011;6816;48.506;9.050;2023-08-31T14:06:45;9.57;;;2.38;;
13487;SDS011;6816;48.506;9.050;2023-08-31T14:09:46;2.08;;;1.77;;
13487;SDS011;6816;48.506;9.050;2023-08-31T14:12:46;2.58;;;1.88;;
13487;SDS011;6816;48.506;9.050;2023-08-31T14:15:47;3.10;;;2.00;;
13487;SDS011;6816;48.506;9.050;2023-08-31T14:18:48;2.47;;;1.58;;
13487;SDS011;6816;48.506;9.050;2023-08-31T14:21:48;2.67;;;1.80;;
13487;SDS011;6816;48.506;9.050;2023-08-31T14:24:49;3.90;;;2.20;;
13487;SDS011;6816;48.506;9.050;2023-08-31T14:27:50;3.17;;;1.70;;
13487;SDS011;6816;48.506;9.050;2023-08-31T14:30:50;3.65;;;1.42;;
13487;SDS011;6816;48.506;9.050;2023-08-31T14:33:51;2.60;;;1.88;;
13487;SDS011;6816;48.506;9.050;2023-08-31T14:36:52;3.90;;;1.80;;
13487;SDS011;6816;48.506;9.050;2023-08-31T14:39:54;3.15;;;1.80;;
13487;SDS011;6816;48.506;9.050;2023-08-31T22:16:11;3.33;;;2.23;;
13487;SDS011;6816;48.506;9.050;2023-08-31T22:19:12;3.60;;;3.10;;
13487;SDS011;6816;48.506;9.050;2023-08-31T22:22:14;3.73;;;3.17;;
13487;SDS011;6816;48.506;9.050;2023-08-31T22:25:15;4.23;;;3.27;;
13487;SDS011;6816;48.506;9.050;2023-08-31T22:28:16;4.13;;;3.00;;
13487;SDS011;6816;48.506;9.050;2023-08-31T22:31:16;4.27;;;2.70;;
13487;SDS011;6816;48.506;9.050;2023-08-31T22:34:17;3.83;;;2.93;;
13487;SDS011;6816;48.506;9.050;2023-08-31T22:37:17;2.70;;;2.50;;
13487;SDS011;6816;48.506;9.050;2023-08-31T22:40:18;2.87;;;2.53;;
13487;SDS011;6816;48.506;9.050;2023-08-31T22:43:19;2.47;;;2.20;;
13487;SDS011;6816;48.506;9.050;2023-08-31T22:46:19;3.47;;;2.23;;
13487;SDS011;6816;48.506;9.050;2023-08-31T22:49:20;2.67;;;2.40;;
13487;SDS011;6816;48.506;9.050;2023-08-31T22:52:20;2.33;;;2.20;;
13487;SDS011;6816;48.506;9.050;2023-08-31T22:55:21;3.50;;;2.20;;
13487;SDS011;6816;48.506;9.050;2023-08-31T22:58:22;2.63;;;2.10;;
13487;SDS011;6816;48.506;9.050;2023-08-31T23:01:22;3.50;;;2.00;;
13487;SDS011;6816;48.506;9.050;2023-08-31T23:04:23;2.77;;;1.83;;
13487;SDS011;6816;48.506;9.050;2023-08-31T23:07:23;2.37;;;1.93;;
13487;SDS011;6816;48.506;9.050;2023-08-31T23:10:24;2.47;;;1.90;;
13487;SDS011;6816;48.506;9.050;2023-08-31T23:13:24;3.90;;;2.17;;
13487;SDS011;6816;48.506;9.050;2023-08-31T23:16:26;3.07;;;2.10;;
13487;SDS011;6816;48.506;9.050;2023-08-31T23:19:27;2.50;;;1.90;;
13487;SDS011;6816;48.506;9.050;2023-08-31T23:22:27;2.00;;;1.80;;
13487;SDS011;6816;48.506;9.050;2023-08-31T23:25:28;2.27;;;1.97;;
13487;SDS011;6816;48.506;9.050;2023-08-31T23:28:29;3.07;;;2.30;;
13487;SDS011;6816;48.506;9.050;2023-08-31T23:31:30;4.43;;;2.27;;
13487;SDS011;6816;48.506;9.050;2023-08-31T23:34:30;2.60;;;1.77;;
13487;SDS011;6816;48.506;9.050;2023-08-31T23:37:31;3.03;;;1.80;;
13487;SDS011;6816;48.506;9.050;2023-08-31T23:40:31;3.77;;;2.10;;
13487;SDS011;6816;48.506;9.050;2023-08-31T23:43:33;2.80;;;2.13;;
13487;SDS011;6816;48.506;9.050;2023-08-31T23:46:34;2.90;;;2.27;;
13487;SDS011;6816;48.506;9.050;2023-08-31T23:49:35;2.97;;;1.80;;
13487;SDS011;6816;48.506;9.050;2023-08-31T23:52:35;3.77;;;2.23;;
13487;SDS011;6816;48.506;9.050;2023-08-31T23:55:39;1.87;;;1.77;;
13487;SDS011;6816;48.506;9.050;2023-08-31T23:58:40;3.90;;;2.40;;
